createdAt,value
2022-09-05T00:01:43.914Z,57.00
2022-09-05T00:04:24.588Z,57.40
2022-09-05T00:07:00.355Z,57.70
2022-09-05T00:09:51.953Z,57.80
2022-09-05T00:12:20.000Z,57.90
2022-09-05T00:15:16.597Z,58.80
2022-09-05T00:23:22.884Z,58.80
2022-09-05T00:24:20.227Z,59.20
2022-09-05T00:24:30.625Z,58.90
2022-09-05T00:27:00.227Z,58.80
2022-09-05T00:31:51.426Z,58.70
2022-09-05T00:32:56.835Z,58.80
2022-09-05T00:35:38.011Z,58.70
2022-09-05T00:38:15.442Z,58.70
2022-09-05T00:40:48.058Z,59.10
2022-09-05T00:43:21.029Z,59.10
2022-09-05T00:45:53.630Z,59.00
2022-09-05T00:48:30.527Z,59.00
2022-09-05T00:51:05.018Z,58.80
2022-09-05T00:53:41.664Z,58.80
2022-09-05T00:56:24.097Z,58.90
2022-09-05T00:59:40.824Z,58.90
2022-09-05T01:02:20.460Z,58.90
2022-09-05T01:04:55.652Z,59.00
2022-09-05T01:07:38.715Z,59.10
2022-09-05T01:10:24.561Z,59.10
2022-09-05T01:13:13.836Z,59.10
2022-09-05T01:15:51.543Z,59.10
2022-09-05T01:18:46.787Z,59.30
2022-09-05T01:21:38.063Z,59.30
2022-09-05T01:24:33.176Z,59.30
2022-09-05T01:28:41.273Z,59.40
2022-09-05T01:30:38.166Z,59.30
2022-09-05T01:33:15.617Z,59.40
2022-09-05T01:36:19.841Z,59.50
2022-09-05T01:40:12.289Z,59.60
2022-09-05T01:41:54.175Z,59.50
2022-09-05T01:44:42.778Z,59.60
2022-09-05T01:47:29.482Z,59.70
2022-09-05T01:50:13.331Z,59.70
2022-09-05T01:53:00.169Z,59.90
2022-09-05T01:56:04.900Z,59.90
2022-09-05T01:58:48.745Z,59.80
2022-09-05T02:01:32.343Z,59.70
2022-09-05T02:04:28.646Z,59.60
2022-09-05T02:07:30.170Z,59.60
2022-09-05T02:10:32.487Z,59.80
2022-09-05T02:13:12.399Z,59.90
2022-09-05T02:16:00.009Z,60.20
2022-09-05T02:18:46.374Z,60.10
2022-09-05T02:21:22.023Z,60.20
2022-09-05T02:23:55.621Z,60.20
2022-09-05T02:26:28.299Z,60.10
2022-09-05T02:29:02.394Z,60.60
2022-09-05T02:31:42.708Z,60.60
2022-09-05T02:34:18.583Z,61.40
2022-09-05T02:36:51.289Z,61.40
2022-09-05T02:45:02.200Z,61.20
2022-09-05T02:45:13.703Z,61.10
2022-09-05T02:45:28.800Z,61.00
2022-09-05T02:48:15.657Z,60.90
2022-09-05T02:57:24.512Z,61.00
2022-09-05T02:57:33.359Z,61.10
2022-09-05T02:57:39.466Z,60.90
2022-09-05T03:00:00.444Z,60.90
2022-09-05T03:02:32.294Z,61.00
2022-09-05T03:05:09.687Z,61.10
2022-09-05T03:07:51.982Z,61.30
2022-09-05T03:10:54.402Z,61.50
2022-09-05T03:13:58.775Z,61.60
2022-09-05T03:17:05.037Z,61.70
2022-09-05T03:20:03.027Z,61.70
2022-09-05T03:23:03.139Z,62.00
2022-09-05T03:26:00.361Z,63.40
2022-09-05T03:29:14.424Z,63.30
2022-09-05T03:32:19.614Z,63.10
2022-09-05T03:35:14.653Z,63.10
2022-09-05T03:37:59.763Z,63.00
2022-09-05T03:40:44.943Z,63.00
2022-09-05T03:43:43.487Z,63.00
2022-09-05T03:46:26.713Z,63.10
2022-09-05T03:50:32.520Z,63.10
2022-09-05T03:57:06.348Z,63.10
2022-09-05T03:57:25.011Z,63.10
2022-09-05T03:58:55.859Z,63.00
2022-09-05T04:03:00.049Z,63.00
2022-09-05T04:08:19.423Z,63.10
2022-09-05T04:08:24.042Z,63.00
2022-09-05T04:10:21.947Z,63.00
2022-09-05T04:12:55.482Z,63.50
2022-09-05T04:15:34.477Z,64.00
2022-09-05T04:18:05.155Z,64.30
2022-09-05T04:20:40.795Z,63.80
2022-09-05T04:23:25.137Z,65.30
2022-09-05T04:26:11.606Z,65.20
2022-09-05T04:28:56.400Z,65.10
2022-09-05T04:31:37.224Z,65.00
2022-09-05T04:34:18.595Z,64.70
2022-09-05T04:36:48.913Z,64.60
2022-09-05T04:39:28.027Z,64.40
2022-09-05T04:42:00.835Z,64.70
2022-09-05T04:44:33.318Z,64.60
2022-09-05T04:47:06.014Z,64.60
2022-09-05T04:49:38.697Z,64.70
2022-09-05T04:52:31.550Z,64.80
2022-09-05T04:55:03.675Z,65.00
2022-09-05T04:57:35.870Z,64.70
2022-09-05T05:06:05.976Z,64.80
2022-09-05T05:06:16.907Z,64.80
2022-09-05T05:06:18.133Z,64.90
2022-09-05T05:08:50.950Z,65.10
2022-09-05T05:17:29.878Z,64.90
2022-09-05T05:18:08.952Z,65.70
2022-09-05T05:18:14.225Z,65.10
2022-09-05T05:20:41.459Z,65.70
2022-09-05T05:23:07.875Z,67.30
2022-09-05T05:25:46.303Z,67.60
2022-09-05T05:28:24.537Z,67.20
2022-09-05T05:31:01.679Z,66.40
2022-09-05T05:33:33.474Z,66.30
2022-09-05T05:36:05.009Z,66.70
2022-09-05T05:38:41.005Z,65.60
2022-09-05T05:41:18.432Z,66.60
2022-09-05T05:43:47.688Z,66.20
2022-09-05T05:46:27.664Z,66.50
2022-09-05T05:49:04.843Z,66.50
2022-09-05T05:52:00.964Z,66.50
2022-09-05T05:54:38.043Z,66.80
2022-09-05T05:57:41.990Z,66.60
2022-09-05T06:00:24.495Z,67.20
2022-09-05T06:03:36.431Z,67.20
2022-09-05T06:06:22.457Z,67.50
2022-09-05T06:14:48.780Z,70.40
2022-09-05T06:15:00.800Z,67.70
2022-09-05T06:16:29.009Z,67.70
2022-09-05T06:19:25.419Z,70.10
2022-09-05T06:22:42.085Z,68.00
2022-09-05T06:25:52.777Z,68.90
2022-09-05T06:28:30.555Z,68.80
2022-09-05T06:31:33.680Z,68.60
2022-09-05T06:34:33.282Z,68.70
2022-09-05T06:37:11.628Z,68.70
2022-09-05T06:40:00.166Z,68.30
2022-09-05T06:42:43.394Z,69.10
2022-09-05T06:45:28.790Z,69.40
2022-09-05T06:48:04.110Z,69.80
2022-09-05T06:51:06.897Z,69.70
2022-09-05T06:54:10.505Z,70.20
2022-09-05T06:56:59.782Z,71.00
2022-09-05T07:00:04.545Z,71.10
2022-09-05T07:02:59.439Z,72.10
2022-09-05T07:05:39.736Z,71.90
2022-09-05T07:08:35.864Z,75.70
2022-09-05T07:11:16.349Z,72.70
2022-09-05T07:13:54.909Z,72.40
2022-09-05T07:16:38.320Z,72.90
2022-09-05T07:19:26.651Z,72.80
2022-09-05T07:22:48.001Z,72.70
2022-09-05T07:25:18.004Z,72.80
2022-09-05T07:28:25.882Z,72.50
2022-09-05T07:30:43.199Z,72.60
2022-09-05T07:33:12.636Z,73.00
2022-09-05T07:35:42.327Z,72.80
2022-09-05T07:38:16.105Z,72.30
2022-09-05T07:40:51.621Z,72.20
2022-09-05T07:43:23.997Z,72.20
2022-09-05T07:46:11.431Z,71.60
2022-09-05T07:48:44.932Z,71.70
2022-09-05T07:56:00.846Z,73.60
2022-09-05T07:57:08.067Z,71.90
2022-09-05T08:00:04.818Z,71.00
2022-09-05T08:02:33.442Z,69.50
2022-09-05T08:05:05.861Z,68.90
2022-09-05T08:07:49.519Z,69.50
2022-09-05T08:10:35.659Z,69.10
2022-09-05T08:13:23.639Z,69.10
2022-09-05T08:16:10.187Z,68.40
2022-09-05T08:18:49.801Z,66.80
2022-09-05T08:21:27.825Z,65.70
2022-09-05T08:24:13.862Z,66.60
2022-09-05T08:26:47.213Z,64.60
2022-09-05T08:29:26.272Z,64.50
2022-09-05T08:31:58.146Z,63.40
2022-09-05T08:34:44.592Z,63.00
2022-09-05T08:37:21.310Z,62.30
2022-09-05T08:40:02.444Z,60.70
2022-09-05T08:45:22.771Z,60.40
2022-09-05T08:46:41.609Z,60.10
2022-09-05T08:48:40.595Z,59.80
2022-09-05T08:51:20.022Z,59.60
2022-09-05T08:54:06.916Z,59.40
2022-09-05T08:56:44.600Z,59.20
2022-09-05T08:59:32.794Z,58.70
2022-09-05T09:02:47.620Z,58.50
2022-09-05T09:05:20.326Z,57.80
2022-09-05T09:07:56.495Z,57.60
2022-09-05T09:10:35.770Z,56.90
2022-09-05T09:13:25.633Z,56.50
2022-09-05T09:16:04.817Z,56.10
2022-09-05T09:18:42.557Z,56.30
2022-09-05T09:21:30.974Z,55.90
2022-09-05T09:24:07.934Z,55.00
2022-09-05T09:26:43.579Z,55.60
2022-09-05T09:29:14.350Z,54.70
2022-09-05T09:32:07.096Z,55.20
2022-09-05T09:34:53.388Z,52.70
2022-09-05T09:37:59.511Z,52.50
2022-09-05T09:40:52.272Z,51.90
2022-09-05T09:43:39.068Z,51.70
2022-09-05T09:46:20.791Z,52.20
2022-09-05T09:49:22.718Z,51.70
2022-09-05T09:52:20.540Z,53.30
2022-09-05T09:55:27.146Z,50.40
2022-09-05T09:58:09.567Z,50.00
2022-09-05T10:00:51.103Z,50.00
2022-09-05T10:10:33.963Z,49.50
2022-09-05T10:10:53.992Z,48.70
2022-09-05T10:10:55.125Z,51.50
2022-09-05T10:13:21.268Z,49.40
2022-09-05T10:16:32.418Z,48.10
2022-09-05T10:22:41.410Z,47.70
2022-09-05T10:25:24.682Z,47.60
2022-09-05T10:28:06.931Z,47.00
2022-09-05T10:32:24.549Z,45.50
2022-09-05T10:35:05.902Z,45.60
2022-09-05T10:36:32.719Z,44.80
2022-09-05T10:39:13.551Z,45.40
2022-09-05T10:41:49.844Z,44.90
2022-09-05T10:44:29.387Z,44.00
2022-09-05T10:47:07.806Z,44.70
2022-09-05T10:49:44.203Z,44.50
2022-09-05T10:52:19.409Z,43.10
2022-09-05T10:55:14.082Z,43.20
2022-09-05T10:57:54.275Z,42.60
2022-09-05T11:02:20.158Z,42.20
2022-09-05T11:03:45.134Z,42.20
2022-09-05T11:06:16.914Z,42.10
2022-09-05T11:09:04.405Z,42.40
2022-09-05T11:11:46.052Z,41.70
2022-09-05T11:14:35.068Z,42.00
2022-09-05T11:17:11.195Z,43.70
2022-09-05T11:19:43.679Z,41.70
2022-09-05T11:22:22.727Z,42.70
2022-09-05T11:24:55.956Z,42.10
2022-09-05T11:27:32.418Z,42.40
2022-09-05T11:30:05.467Z,41.40
2022-09-05T11:39:58.407Z,41.50
2022-09-05T11:40:02.701Z,41.10
2022-09-05T11:40:02.805Z,40.80
2022-09-05T11:42:34.031Z,40.90
2022-09-05T11:45:33.307Z,40.20
2022-09-05T11:48:53.589Z,40.30
2022-09-05T11:52:00.064Z,40.20
2022-09-05T11:54:57.907Z,40.60
2022-09-05T11:57:42.471Z,41.20
2022-09-05T12:00:31.637Z,39.70
2022-09-05T12:03:59.461Z,39.10
2022-09-05T12:07:00.525Z,39.20
2022-09-05T12:09:44.442Z,39.30
2022-09-05T12:12:38.895Z,40.50
2022-09-05T12:15:26.322Z,39.40
2022-09-05T12:18:19.575Z,38.60
2022-09-05T12:20:59.702Z,38.20
2022-09-05T12:23:53.758Z,40.10
2022-09-05T12:27:41.628Z,39.20
2022-09-05T12:29:29.662Z,39.60
2022-09-05T12:34:05.169Z,38.80
2022-09-05T12:36:10.696Z,38.90
2022-09-05T12:40:04.942Z,39.10
2022-09-05T12:41:36.333Z,38.40
2022-09-05T12:44:38.261Z,38.50
2022-09-05T12:46:26.821Z,38.70
2022-09-05T12:49:07.384Z,38.60
2022-09-05T12:51:46.896Z,38.50
2022-09-05T12:54:33.089Z,39.30
2022-09-05T13:02:14.667Z,39.50
2022-09-05T13:03:07.768Z,40.30
2022-09-05T13:03:10.867Z,39.40
2022-09-05T13:05:51.499Z,38.50
2022-09-05T13:08:22.325Z,38.80
2022-09-05T13:14:47.446Z,40.10
2022-09-05T13:14:58.509Z,39.10
2022-09-05T13:16:39.616Z,39.70
2022-09-05T13:19:19.802Z,40.90
2022-09-05T13:21:52.587Z,39.50
2022-09-05T13:24:27.610Z,39.60
2022-09-05T13:26:57.757Z,39.30
2022-09-05T13:29:32.281Z,38.30
2022-09-05T13:38:08.169Z,38.90
2022-09-05T13:38:19.753Z,37.60
2022-09-05T13:38:37.681Z,37.90
2022-09-05T13:41:00.340Z,36.80
2022-09-05T13:43:32.711Z,38.10
2022-09-05T13:46:11.317Z,38.30
2022-09-05T13:51:44.221Z,37.50
2022-09-05T13:54:36.308Z,37.90
2022-09-05T13:57:32.450Z,38.20
2022-09-05T14:00:53.051Z,38.10
2022-09-05T14:04:07.294Z,38.00
2022-09-05T14:10:21.957Z,38.00
2022-09-05T14:13:01.230Z,38.10
2022-09-05T14:15:42.754Z,38.10
2022-09-05T14:18:22.148Z,38.30
2022-09-05T14:21:15.415Z,38.90
2022-09-05T14:23:53.361Z,38.20
2022-09-05T14:26:29.209Z,38.40
2022-09-05T14:29:06.945Z,39.40
2022-09-05T14:37:38.940Z,36.70
2022-09-05T14:37:50.200Z,36.80
2022-09-05T14:38:09.350Z,36.00
2022-09-05T14:41:20.768Z,35.50
2022-09-05T14:44:27.650Z,35.20
2022-09-05T14:47:36.408Z,35.90
2022-09-05T14:50:27.743Z,35.80
2022-09-05T14:56:02.818Z,36.60
2022-09-05T15:02:42.571Z,36.60
2022-09-05T15:02:57.903Z,35.40
2022-09-05T15:04:34.801Z,35.70
2022-09-05T15:07:08.397Z,35.80
2022-09-05T15:12:18.910Z,35.50
2022-09-05T15:12:39.617Z,36.00
2022-09-05T15:15:20.188Z,34.90
2022-09-05T15:17:50.782Z,35.20
2022-09-05T15:20:35.692Z,35.30
2022-09-05T15:23:16.459Z,35.30
2022-09-05T15:25:47.369Z,36.00
2022-09-05T15:28:32.557Z,36.10
2022-09-05T15:31:02.592Z,35.50
2022-09-05T15:33:31.915Z,37.00
2022-09-05T15:36:01.349Z,37.00
2022-09-05T15:38:48.944Z,35.40
2022-09-05T15:41:22.823Z,35.00
2022-09-05T15:44:00.774Z,35.00
2022-09-05T15:46:41.177Z,34.60
2022-09-05T15:49:14.152Z,34.70
2022-09-05T15:51:48.018Z,34.70
2022-09-05T15:54:37.748Z,34.70
2022-09-05T15:57:15.249Z,34.60
2022-09-05T15:59:52.681Z,34.80
2022-09-05T16:02:24.261Z,34.20
2022-09-05T16:10:27.143Z,35.90
2022-09-05T16:10:38.385Z,34.30
2022-09-05T16:11:20.275Z,34.70
2022-09-05T16:13:39.686Z,35.80
2022-09-05T16:23:23.749Z,35.40
2022-09-05T16:23:34.921Z,34.90
2022-09-05T16:25:00.617Z,35.10
2022-09-05T16:27:51.855Z,35.70
2022-09-05T16:30:25.134Z,35.30
2022-09-05T16:33:01.869Z,35.70
2022-09-05T16:35:33.254Z,35.70
2022-09-05T16:38:10.047Z,35.90
2022-09-05T16:40:41.982Z,35.80
2022-09-05T16:43:16.735Z,37.10
2022-09-05T16:45:49.223Z,36.20
2022-09-05T16:48:42.427Z,37.20
2022-09-05T16:51:28.737Z,36.70
2022-09-05T16:54:10.999Z,36.70
2022-09-05T16:56:42.857Z,36.40
2022-09-05T16:59:15.752Z,37.10
2022-09-05T17:02:07.522Z,36.30
2022-09-05T17:05:04.138Z,37.30
2022-09-05T17:07:46.086Z,38.80
2022-09-05T17:10:19.814Z,37.00
2022-09-05T17:12:52.244Z,37.10
2022-09-05T17:15:22.845Z,37.00
2022-09-05T17:18:19.377Z,37.50
2022-09-05T17:20:50.889Z,37.60
2022-09-05T17:28:30.013Z,37.70
2022-09-05T17:29:30.409Z,37.90
2022-09-05T17:29:45.781Z,37.90
2022-09-05T17:31:58.227Z,38.20
2022-09-05T17:34:47.833Z,40.40
2022-09-05T17:37:45.018Z,38.10
2022-09-05T17:40:42.662Z,38.40
2022-09-05T17:43:28.849Z,39.10
2022-09-05T17:46:13.006Z,38.60
2022-09-05T17:49:19.796Z,38.80
2022-09-05T17:52:22.763Z,39.90
2022-09-05T17:54:54.584Z,39.20
2022-09-05T17:57:41.618Z,39.00
2022-09-05T18:00:49.406Z,39.20
2022-09-05T18:04:17.359Z,39.50
2022-09-05T18:06:59.983Z,39.50
2022-09-05T18:10:12.688Z,40.80
2022-09-05T18:16:10.480Z,39.70
2022-09-05T18:19:32.598Z,40.10
2022-09-05T18:21:48.433Z,39.80
2022-09-05T18:24:33.285Z,39.70
2022-09-05T18:27:44.022Z,40.00
2022-09-05T18:30:09.680Z,42.10
2022-09-05T18:32:47.261Z,40.10
2022-09-05T18:35:37.751Z,40.20
2022-09-05T18:38:29.515Z,40.30
2022-09-05T18:41:18.234Z,40.30
2022-09-05T18:44:13.119Z,41.10
2022-09-05T18:46:46.419Z,40.40
2022-09-05T18:50:21.777Z,40.40
2022-09-05T18:52:16.890Z,40.40
2022-09-05T18:56:09.005Z,41.10
2022-09-05T18:57:49.298Z,41.10
2022-09-05T19:00:35.039Z,41.10
2022-09-05T19:03:18.235Z,41.60
2022-09-05T19:05:50.685Z,41.70
2022-09-05T19:08:29.023Z,41.40
2022-09-05T19:11:02.017Z,41.90
2022-09-05T19:13:54.167Z,41.50
2022-09-05T19:16:47.378Z,42.80
2022-09-05T19:19:18.365Z,43.40
2022-09-05T19:21:56.289Z,43.50
2022-09-05T19:24:44.871Z,43.90
2022-09-05T19:28:19.305Z,45.40
2022-09-05T19:36:57.983Z,45.40
2022-09-05T19:37:05.136Z,43.70
2022-09-05T19:37:15.394Z,44.40
2022-09-05T19:38:34.685Z,43.10
2022-09-05T19:47:30.782Z,42.90
2022-09-05T19:47:41.362Z,42.90
2022-09-05T19:47:47.447Z,43.80
2022-09-05T19:50:11.270Z,43.10
2022-09-05T19:52:40.313Z,43.10
2022-09-05T19:55:21.701Z,43.40
2022-09-05T19:57:56.925Z,43.40
2022-09-05T20:00:41.391Z,43.40
2022-09-05T20:03:09.664Z,44.20
2022-09-05T20:05:42.046Z,43.60
2022-09-05T20:08:14.075Z,43.80
2022-09-05T20:10:42.227Z,43.80
2022-09-05T20:13:24.309Z,43.70
2022-09-05T20:15:53.204Z,43.90
2022-09-05T20:18:23.237Z,43.90
2022-09-05T20:20:55.530Z,44.00
2022-09-05T20:23:25.482Z,46.10
2022-09-05T20:25:56.189Z,45.80
2022-09-05T20:28:26.435Z,44.70
2022-09-05T20:30:56.674Z,44.80
2022-09-05T20:33:28.419Z,46.30
2022-09-05T20:43:18.924Z,45.60
2022-09-05T20:43:23.235Z,45.80
2022-09-05T20:43:32.708Z,45.60
2022-09-05T20:44:48.206Z,47.00
2022-09-05T20:54:07.046Z,46.70
2022-09-05T20:54:14.690Z,46.90
2022-09-05T20:54:28.315Z,47.20
2022-09-05T20:56:03.392Z,48.10
2022-09-05T20:58:32.736Z,51.10
2022-09-05T21:01:20.401Z,50.20
2022-09-05T21:03:57.052Z,51.20
2022-09-05T21:06:29.446Z,53.10
2022-09-05T21:09:17.787Z,51.70
2022-09-05T21:11:54.150Z,53.50
2022-09-05T21:14:24.061Z,53.40
2022-09-05T21:16:59.254Z,54.60
2022-09-05T21:19:30.890Z,56.70
2022-09-05T21:22:06.797Z,55.60
2022-09-05T21:24:36.727Z,55.70
2022-09-05T21:27:17.292Z,55.30
2022-09-05T21:29:50.964Z,56.40
2022-09-05T21:32:37.818Z,56.60
2022-09-05T21:35:33.732Z,57.10
2022-09-05T21:38:01.542Z,56.50
2022-09-05T21:40:30.812Z,56.50
2022-09-05T21:46:19.020Z,56.30
2022-09-05T21:47:47.403Z,56.60
2022-09-05T21:48:38.999Z,56.40
2022-09-05T21:51:08.801Z,56.60
2022-09-05T21:57:01.793Z,57.20
2022-09-05T21:59:20.125Z,57.30
2022-09-05T21:59:36.891Z,57.90
2022-09-05T22:02:08.591Z,58.40
2022-09-05T22:04:40.900Z,57.60
2022-09-05T22:07:12.048Z,57.80
2022-09-05T22:09:39.957Z,58.50
2022-09-05T22:12:30.385Z,60.30
2022-09-05T22:14:57.858Z,59.20
2022-09-05T22:17:38.464Z,58.90
2022-09-05T22:20:08.062Z,59.30
2022-09-05T22:22:38.024Z,59.80
2022-09-05T22:25:09.403Z,62.20
2022-09-05T22:27:44.240Z,61.90
2022-09-05T22:30:13.542Z,64.20
2022-09-05T22:32:41.428Z,62.70
2022-09-05T22:35:16.039Z,62.30
2022-09-05T22:38:01.641Z,62.40
2022-09-05T22:40:31.457Z,62.60
2022-09-05T22:43:03.763Z,62.90
2022-09-05T22:45:33.600Z,62.30
2022-09-05T22:48:07.945Z,62.00
2022-09-05T22:50:36.799Z,62.20
2022-09-05T22:53:06.951Z,62.00
2022-09-05T22:55:35.185Z,62.40
2022-09-05T22:58:05.543Z,62.60
2022-09-05T23:00:34.493Z,62.50
2022-09-05T23:03:04.149Z,62.20
2022-09-05T23:05:32.203Z,63.30
2022-09-05T23:08:00.763Z,63.70
2022-09-05T23:10:29.943Z,63.00
2022-09-05T23:12:58.488Z,63.50
2022-09-05T23:15:27.800Z,65.80
2022-09-05T23:17:56.420Z,63.90
2022-09-05T23:20:26.271Z,63.60
2022-09-05T23:22:54.441Z,64.30
2022-09-05T23:25:23.290Z,64.40
2022-09-05T23:27:51.758Z,64.20
2022-09-05T23:30:20.311Z,64.50
2022-09-05T23:32:50.977Z,64.60
2022-09-05T23:35:19.972Z,66.90
2022-09-05T23:37:49.239Z,65.00
2022-09-05T23:40:20.042Z,65.30
2022-09-05T23:42:52.893Z,65.50
2022-09-05T23:45:21.028Z,68.30
2022-09-05T23:47:50.234Z,67.20
2022-09-05T23:50:18.554Z,69.60
2022-09-05T23:52:47.651Z,65.80
2022-09-05T23:55:18.138Z,68.40
2022-09-05T23:57:46.587Z,67.00
